Time;durP1;ratioP1;P1;durP2;ratioP2;P2;SDS_P1;SDS_P2;PMS_P1;PMS_P2;Temp;Humidity;BMP_temperature;BMP_pressure;BME280_temperature;BME280_humidity;BME280_pressure;Samples;Min_cycle;Max_cycle;Signal;HPM_P1;HPM_P2
2021/03/24 00:01:18;;;;;;;22.83;2.35;;;;;;;;;;4094805;34;20105;-84
2021/03/24 00:03:47;;;;;;;30.48;2.62;;;;;;;;;;4095979;34;20066;-84
2021/03/24 00:06:15;;;;;;;23.60;2.80;;;;;;;;;;4094409;34;20061;-84
2021/03/24 00:08:43;;;;;;;19.23;2.28;;;;;;;;;;4093903;34;20528;-83
2021/03/24 00:11:13;;;;;;;19.35;2.20;;;;;;;;;;4093997;34;20737;-84
2021/03/24 00:13:41;;;;;;;26.87;2.55;;;;;;;;;;4093152;34;20053;-84
2021/03/24 00:16:10;;;;;;;21.50;2.47;;;;;;;;;;4099198;34;20460;-84
2021/03/24 00:18:39;;;;;;;20.02;1.98;;;;;;;;;;4095009;34;20054;-83
2021/03/24 00:21:09;;;;;;;16.98;2.35;;;;;;;;;;4100411;34;20084;-83
2021/03/24 00:23:37;;;;;;;19.37;2.12;;;;;;;;;;4093052;34;20147;-84
2021/03/24 00:26:05;;;;;;;20.70;1.80;;;;;;;;;;4095503;34;20097;-84
2021/03/24 00:28:33;;;;;;;24.23;2.70;;;;;;;;;;4101186;34;20140;-85
2021/03/24 00:31:02;;;;;;;16.20;1.98;;;;;;;;;;4092879;34;20410;-85
2021/03/24 00:33:31;;;;;;;24.35;2.37;;;;;;;;;;4091227;34;20087;-84
2021/03/24 00:35:59;;;;;;;22.90;2.90;;;;;;;;;;4091554;34;20097;-85
2021/03/24 00:38:27;;;;;;;17.70;2.58;;;;;;;;;;4096374;34;20088;-84
2021/03/24 00:40:57;;;;;;;16.95;2.20;;;;;;;;;;4094207;34;20078;-84
2021/03/24 00:43:26;;;;;;;17.55;2.25;;;;;;;;;;4092372;34;20131;-83
2021/03/24 00:45:55;;;;;;;19.92;1.98;;;;;;;;;;4085015;34;20688;-84
2021/03/24 00:48:31;;;;;;;15.55;2.37;;;;;;;;;;4093999;34;20109;-84
2021/03/24 00:51:00;;;;;;;18.05;2.17;;;;;;;;;;4094319;34;20113;-83
2021/03/24 00:53:28;;;;;;;11.73;2.03;;;;;;;;;;4094784;34;20469;-84
2021/03/24 00:55:56;;;;;;;31.58;2.80;;;;;;;;;;4099110;34;20072;-84
2021/03/24 00:58:25;;;;;;;17.25;2.47;;;;;;;;;;4093476;34;20125;-84
2021/03/24 01:00:53;;;;;;;14.57;2.03;;;;;;;;;;4093989;34;20073;-84
2021/03/24 01:03:21;;;;;;;20.27;2.40;;;;;;;;;;4092573;34;21229;-85
2021/03/24 01:05:50;;;;;;;14.45;2.40;;;;;;;;;;4094706;34;20119;-84
2021/03/24 01:08:20;;;;;;;17.52;2.28;;;;;;;;;;4094862;34;20108;-84
2021/03/24 01:10:48;;;;;;;11.18;2.25;;;;;;;;;;4098212;34;20492;-84
2021/03/24 01:13:17;;;;;;;25.83;2.80;;;;;;;;;;4093287;34;20077;-85
2021/03/24 01:15:46;;;;;;;22.23;2.33;;;;;;;;;;4099392;34;20533;-84
2021/03/24 01:18:14;;;;;;;21.77;2.87;;;;;;;;;;4086156;34;20260;-83
2021/03/24 01:20:43;;;;;;;21.17;2.65;;;;;;;;;;4100536;34;20690;-85
2021/03/24 01:23:11;;;;;;;15.27;2.30;;;;;;;;;;4101310;35;20050;-84
2021/03/24 01:25:39;;;;;;;15.35;2.05;;;;;;;;;;4096045;34;20720;-84
2021/03/24 01:28:09;;;;;;;15.20;2.50;;;;;;;;;;4097953;34;20086;-84
2021/03/24 01:30:37;;;;;;;18.20;2.20;;;;;;;;;;4097206;34;20124;-84
2021/03/24 01:33:05;;;;;;;16.75;2.10;;;;;;;;;;4098559;34;20081;-84
2021/03/24 01:35:36;;;;;;;10.30;2.30;;;;;;;;;;4098075;34;20084;-84
2021/03/24 01:38:04;;;;;;;21.87;2.85;;;;;;;;;;4102047;34;20105;-84
2021/03/24 01:40:35;;;;;;;16.25;2.10;;;;;;;;;;4099253;35;20468;-85
2021/03/24 01:43:18;;;;;;;16.35;2.50;;;;;;;;;;4100083;34;20671;-84
2021/03/24 01:45:46;;;;;;;14.85;2.45;;;;;;;;;;4098530;34;20113;-84
2021/03/24 01:48:18;;;;;;;23.70;3.03;;;;;;;;;;4101561;34;20163;-85
2021/03/24 01:50:47;;;;;;;20.48;2.97;;;;;;;;;;4097047;34;20069;-84
2021/03/24 01:53:18;;;;;;;21.30;2.83;;;;;;;;;;4089271;34;20111;-84
2021/03/24 01:55:46;;;;;;;18.02;2.25;;;;;;;;;;4098521;34;20208;-84
2021/03/24 01:58:15;;;;;;;14.38;2.25;;;;;;;;;;4099386;34;20510;-84
2021/03/24 02:00:46;;;;;;;18.90;3.05;;;;;;;;;;4098973;34;20356;-84
2021/03/24 02:03:14;;;;;;;12.35;2.45;;;;;;;;;;4092197;34;20125;-85
2021/03/24 02:05:44;;;;;;;17.30;2.47;;;;;;;;;;4099017;34;20049;-84
2021/03/24 02:08:18;;;;;;;21.60;2.47;;;;;;;;;;4098552;34;20061;-84
2021/03/24 02:11:09;;;;;;;11.68;2.40;;;;;;;;;;4099754;34;20153;-83
2021/03/24 02:13:41;;;;;;;17.50;2.42;;;;;;;;;;4102553;34;20793;-84
2021/03/24 02:16:30;;;;;;;21.67;2.60;;;;;;;;;;4103133;35;20092;-84
2021/03/24 02:19:00;;;;;;;16.35;2.62;;;;;;;;;;4101211;34;20446;-84
2021/03/24 02:21:31;;;;;;;20.77;2.25;;;;;;;;;;4103170;35;20075;-83
2021/03/24 02:23:59;;;;;;;16.12;2.53;;;;;;;;;;4103702;34;20414;-84
2021/03/24 02:26:33;;;;;;;16.50;2.45;;;;;;;;;;4097036;34;20084;-84
2021/03/24 02:29:02;;;;;;;20.37;2.70;;;;;;;;;;4096529;34;20113;-83
2021/03/24 02:31:31;;;;;;;14.25;2.67;;;;;;;;;;4093735;34;20049;-84
2021/03/24 02:34:00;;;;;;;19.20;2.60;;;;;;;;;;4093691;34;20062;-83
2021/03/24 02:36:30;;;;;;;16.40;2.60;;;;;;;;;;4103348;34;20097;-85
2021/03/24 02:38:59;;;;;;;25.60;2.60;;;;;;;;;;4097395;34;20068;-83
2021/03/24 02:41:28;;;;;;;14.05;2.53;;;;;;;;;;4095014;34;20096;-84
2021/03/24 02:43:57;;;;;;;17.52;2.60;;;;;;;;;;4099637;34;20081;-85
2021/03/24 02:46:25;;;;;;;18.98;2.92;;;;;;;;;;4095428;34;20495;-84
2021/03/24 02:48:54;;;;;;;15.90;2.62;;;;;;;;;;4096303;35;20170;-84
2021/03/24 02:51:25;;;;;;;15.88;2.75;;;;;;;;;;4094977;34;20069;-84
2021/03/24 02:54:11;;;;;;;14.87;2.50;;;;;;;;;;4096329;34;20104;-83
2021/03/24 02:56:40;;;;;;;12.98;2.30;;;;;;;;;;4095879;34;20078;-83
2021/03/24 02:59:08;;;;;;;13.32;2.72;;;;;;;;;;4095282;34;20108;-86
2021/03/24 03:01:43;;;;;;;18.45;3.00;;;;;;;;;;4097107;34;20159;-84
2021/03/24 03:04:20;;;;;;;19.15;2.78;;;;;;;;;;4090082;34;20590;-84
2021/03/24 03:06:51;;;;;;;16.33;2.55;;;;;;;;;;4098704;34;20096;-85
2021/03/24 03:09:32;;;;;;;19.98;2.97;;;;;;;;;;4097266;34;20643;-83
2021/03/24 03:12:04;;;;;;;19.30;3.22;;;;;;;;;;4095401;29;20046;-92
2021/03/24 03:14:36;;;;;;;15.40;2.65;;;;;;;;;;4063483;35;20119;-93
2021/03/24 03:17:13;;;;;;;17.08;2.97;;;;;;;;;;4062540;35;20107;-93
2021/03/24 03:20:05;;;;;;;17.08;2.87;;;;;;;;;;4065482;35;20086;-93
2021/03/24 03:22:37;;;;;;;20.42;2.65;;;;;;;;;;4049948;35;20121;-93
2021/03/24 03:25:15;;;;;;;18.25;3.08;;;;;;;;;;4066934;35;20067;-93
2021/03/24 03:27:44;;;;;;;15.98;2.58;;;;;;;;;;4059245;35;20126;-93
2021/03/24 03:30:14;;;;;;;26.33;3.03;;;;;;;;;;4038143;35;20063;-93
2021/03/24 03:32:43;;;;;;;21.37;2.58;;;;;;;;;;4064085;35;20080;-93
2021/03/24 03:35:19;;;;;;;16.00;2.58;;;;;;;;;;4043816;35;20082;-94
2021/03/24 03:37:49;;;;;;;16.55;3.20;;;;;;;;;;4053820;35;20093;-94
2021/03/24 03:40:19;;;;;;;15.70;2.17;;;;;;;;;;4057974;35;20062;-93
2021/03/24 03:42:51;;;;;;;17.42;2.42;;;;;;;;;;4056562;35;20073;-93
2021/03/24 03:45:20;;;;;;;21.55;3.05;;;;;;;;;;4059419;35;20073;-94
2021/03/24 03:48:10;;;;;;;22.05;3.20;;;;;;;;;;4063278;35;20096;-94
2021/03/24 03:50:45;;;;;;;21.33;3.22;;;;;;;;;;4057022;35;20402;-93
2021/03/24 03:53:35;;;;;;;14.10;2.10;;;;;;;;;;4056847;35;20063;-93
2021/03/24 03:56:07;;;;;;;20.55;3.12;;;;;;;;;;4060453;35;20094;-94
2021/03/24 03:58:48;;;;;;;19.62;2.65;;;;;;;;;;4066158;35;20050;-94
2021/03/24 04:01:21;;;;;;;15.50;2.85;;;;;;;;;;4056660;35;20101;-95
2021/03/24 04:04:03;;;;;;;15.50;2.37;;;;;;;;;;4057099;35;20090;-94
2021/03/24 04:07:00;;;;;;;16.83;3.12;;;;;;;;;;4066837;35;20090;-95
2021/03/24 04:09:31;;;;;;;16.73;2.70;;;;;;;;;;4045831;35;20063;-93
2021/03/24 04:12:19;;;;;;;16.33;2.60;;;;;;;;;;4054073;35;20398;-92
2021/03/24 04:14:54;;;;;;;14.48;3.00;;;;;;;;;;4046385;35;20081;-92
2021/03/24 04:17:26;;;;;;;17.58;2.45;;;;;;;;;;4054099;35;20414;-92
2021/03/24 04:19:58;;;;;;;13.50;2.67;;;;;;;;;;4054498;35;20055;-92
2021/03/24 04:22:30;;;;;;;21.33;3.50;;;;;;;;;;4056218;35;20085;-94
2021/03/24 04:25:11;;;;;;;;;;;;;;;;;;4067901;35;20119;-94
2021/03/24 04:27:44;;;;;;;15.27;2.80;;;;;;;;;;4060354;35;20010;-94
2021/03/24 04:30:22;;;;;;;13.65;2.85;;;;;;;;;;4066378;35;20095;-96
2021/03/24 04:32:55;;;;;;;15.70;2.78;;;;;;;;;;4057897;35;20063;-95
2021/03/24 04:35:29;;;;;;;14.40;2.47;;;;;;;;;;4056914;35;20086;-94
2021/03/24 04:38:36;;;;;;;16.30;2.42;;;;;;;;;;4051752;35;20443;-95
2021/03/24 04:41:19;;;;;;;18.17;2.50;;;;;;;;;;4056784;35;20062;-95
2021/03/24 04:44:02;;;;;;;20.33;3.03;;;;;;;;;;4054428;35;20058;-94
2021/03/24 04:46:46;;;;;;;13.60;2.72;;;;;;;;;;4067533;35;20186;-95
2021/03/24 04:49:35;;;;;;;17.30;2.97;;;;;;;;;;4062897;35;20051;-94
2021/03/24 04:52:05;;;;;;;21.48;2.97;;;;;;;;;;4066118;35;20152;-94
2021/03/24 04:54:37;;;;;;;17.48;2.65;;;;;;;;;;4065012;35;20077;-95
2021/03/24 04:57:11;;;;;;;14.02;2.95;;;;;;;;;;4065532;35;20133;-95
2021/03/24 04:59:55;;;;;;;22.35;3.12;;;;;;;;;;4057226;35;20103;-95
2021/03/24 05:02:36;;;;;;;13.02;2.78;;;;;;;;;;4058545;35;20161;-94
2021/03/24 05:05:14;;;;;;;13.15;2.78;;;;;;;;;;4064894;35;20051;-94
2021/03/24 05:08:03;;;;;;;18.23;2.97;;;;;;;;;;4060554;35;20077;-94
2021/03/24 05:10:32;;;;;;;17.50;2.65;;;;;;;;;;4060385;35;20062;-95
2021/03/24 05:13:15;;;;;;;17.23;2.53;;;;;;;;;;4076312;35;20058;-94
2021/03/24 05:15:58;;;;;;;19.50;2.83;;;;;;;;;;4055342;35;20063;-94
2021/03/24 05:18:42;;;;;;;15.40;2.47;;;;;;;;;;4068803;35;20079;-96
2021/03/24 05:21:23;;;;;;;19.58;2.90;;;;;;;;;;4056192;35;20068;-95
2021/03/24 05:23:57;;;;;;;18.87;2.58;;;;;;;;;;4073150;35;20092;-94
2021/03/24 05:26:28;;;;;;;;;;;;;;;;;;4068644;35;20497;-96
2021/03/24 05:29:03;;;;;;;21.90;2.92;;;;;;;;;;4061747;35;19961;-95
2021/03/24 05:31:44;;;;;;;15.80;2.65;;;;;;;;;;4054798;35;20117;-95
2021/03/24 05:34:25;;;;;;;18.80;2.77;;;;;;;;;;4062622;35;20074;-94
2021/03/24 05:36:55;;;;;;;17.58;3.00;;;;;;;;;;4067517;35;20161;-93
2021/03/24 05:39:36;;;;;;;27.42;2.87;;;;;;;;;;4073827;35;20063;-95
2021/03/24 05:42:45;;;;;;;14.85;2.90;;;;;;;;;;4058724;35;20442;-95
2021/03/24 05:45:40;;;;;;;25.25;3.15;;;;;;;;;;4058880;35;20066;-95
2021/03/24 05:48:37;;;;;;;13.93;2.60;;;;;;;;;;4069782;35;20402;-96
2021/03/24 05:51:20;;;;;;;19.00;2.65;;;;;;;;;;4054313;35;20107;-95
2021/03/24 05:54:10;;;;;;;17.40;2.08;;;;;;;;;;4059572;35;20058;-94
2021/03/24 05:57:09;;;;;;;12.27;2.33;;;;;;;;;;4064622;35;20129;-95
2021/03/24 05:59:47;;;;;;;19.17;2.97;;;;;;;;;;4062008;35;20481;-95
2021/03/24 06:02:41;;;;;;;22.55;3.05;;;;;;;;;;4058607;35;20516;-95
2021/03/24 06:05:25;;;;;;;13.57;2.55;;;;;;;;;;4069622;35;20055;-94
2021/03/24 06:08:02;;;;;;;13.77;2.72;;;;;;;;;;4058791;35;20159;-94
2021/03/24 06:10:37;;;;;;;14.80;2.22;;;;;;;;;;4071154;35;20063;-93
2021/03/24 06:13:16;;;;;;;12.73;2.40;;;;;;;;;;4050364;35;20062;-95
2021/03/24 06:16:07;;;;;;;23.20;2.85;;;;;;;;;;4067216;35;20129;-95
2021/03/24 06:18:45;;;;;;;21.65;2.70;;;;;;;;;;4069692;35;20065;-95
2021/03/24 06:21:13;;;;;;;;;;;;;;;;;;4068874;35;20098;-93
2021/03/24 06:23:47;;;;;;;20.00;2.72;;;;;;;;;;4069323;35;20034;-93
2021/03/24 06:26:22;;;;;;;18.10;2.33;;;;;;;;;;4052469;35;20059;-95
2021/03/24 06:29:06;;;;;;;7.85;2.10;;;;;;;;;;4057083;35;20099;-95
2021/03/24 06:31:52;;;;;;;14.73;2.03;;;;;;;;;;4045020;35;20071;-94
2021/03/24 06:34:40;;;;;;;13.07;2.00;;;;;;;;;;4058655;35;20055;-94
2021/03/24 06:37:23;;;;;;;12.27;2.15;;;;;;;;;;4072179;35;20082;-95
2021/03/24 06:40:06;;;;;;;13.05;2.10;;;;;;;;;;4066798;35;20081;-95
2021/03/24 06:42:56;;;;;;;13.68;1.87;;;;;;;;;;4059021;35;20055;-96
2021/03/24 06:45:24;;;;;;;14.13;2.15;;;;;;;;;;4068850;35;20094;-94
2021/03/24 06:48:02;;;;;;;12.55;1.70;;;;;;;;;;4067520;35;20693;-95
2021/03/24 06:50:34;;;;;;;12.68;2.10;;;;;;;;;;4061229;35;20053;-93
2021/03/24 06:53:16;;;;;;;18.77;2.10;;;;;;;;;;4059259;35;20059;-95
2021/03/24 06:56:05;;;;;;;23.15;2.50;;;;;;;;;;4062174;35;20110;-96
2021/03/24 06:59:13;;;;;;;;;;;;;;;;;;;;;
2021/03/24 07:02:12;;;;;;;13.80;1.98;;;;;;;;;;4077539;35;20093;-96
2021/03/24 07:04:59;;;;;;;9.90;2.90;;;;;;;;;;4063172;35;20384;-96
2021/03/24 07:07:57;;;;;;;18.62;2.00;;;;;;;;;;4075898;35;20531;-96
2021/03/24 07:11:06;;;;;;;10.93;1.70;;;;;;;;;;4073187;35;20047;-96
2021/03/24 07:14:09;;;;;;;17.10;2.45;;;;;;;;;;4050769;35;20066;-96
2021/03/24 07:16:52;;;;;;;19.87;2.17;;;;;;;;;;4054270;35;20058;-95
2021/03/24 07:19:42;;;;;;;16.20;2.20;;;;;;;;;;4061378;35;20062;-93
2021/03/24 07:22:18;;;;;;;15.77;2.00;;;;;;;;;;4049389;35;20086;-96
2021/03/24 07:25:10;;;;;;;15.93;2.37;;;;;;;;;;4041737;35;20058;-93
2021/03/24 07:27:52;;;;;;;12.25;1.62;;;;;;;;;;4077129;35;20901;-95
2021/03/24 07:30:39;;;;;;;12.45;1.87;;;;;;;;;;4069903;35;20073;-94
2021/03/24 07:33:28;;;;;;;14.30;1.90;;;;;;;;;;4054389;35;20069;-95
2021/03/24 07:36:21;;;;;;;10.00;1.80;;;;;;;;;;4045663;35;20062;-95
2021/03/24 07:38:55;;;;;;;10.85;1.90;;;;;;;;;;4055680;35;20067;-96
2021/03/24 07:41:24;;;;;;;12.68;1.80;;;;;;;;;;4071653;35;20142;-94
2021/03/24 07:43:53;;;;;;;12.95;1.80;;;;;;;;;;4054654;35;20042;-94
2021/03/24 07:46:43;;;;;;;90.05;6.93;;;;;;;;;;4058628;35;20068;-94
2021/03/24 07:49:24;;;;;;;14.45;2.30;;;;;;;;;;4057380;35;20055;-94
2021/03/24 07:52:26;;;;;;;41.97;12.45;;;;;;;;;;4058223;35;20447;-94
2021/03/24 07:55:10;;;;;;;18.80;2.17;;;;;;;;;;4062031;35;20122;-96
2021/03/24 07:58:06;;;;;;;17.77;2.70;;;;;;;;;;4064828;35;20117;-95
2021/03/24 08:00:50;;;;;;;19.48;2.45;;;;;;;;;;4057830;35;20054;-95
2021/03/24 08:03:21;;;;;;;48.40;4.22;;;;;;;;;;4054557;35;20054;-96
2021/03/24 08:06:00;;;;;;;15.65;2.92;;;;;;;;;;4058744;35;20090;-94
2021/03/24 08:08:28;;;;;;;306.27;163.52;;;;;;;;;;4055378;35;20054;-94
2021/03/24 08:11:24;;;;;;;1999.90;999.90;;;;;;;;;;4057744;35;20179;-94
2021/03/24 08:13:56;;;;;;;1999.90;999.90;;;;;;;;;;4063234;35;20121;-94
2021/03/24 08:16:33;;;;;;;1999.90;999.90;;;;;;;;;;4059250;35;20048;-95
2021/03/24 08:19:19;;;;;;;1999.90;999.90;;;;;;;;;;4062288;35;20451;-94
2021/03/24 08:22:16;;;;;;;1999.90;999.90;;;;;;;;;;4055218;35;20058;-95
2021/03/24 08:24:54;;;;;;;1999.90;999.90;;;;;;;;;;4055330;35;20067;-96
2021/03/24 08:27:39;;;;;;;435.93;411.23;;;;;;;;;;4063387;35;20047;-95
2021/03/24 08:30:09;;;;;;;11.12;1.67;;;;;;;;;;4064089;35;20081;-95
2021/03/24 08:32:53;;;;;;;16.77;2.10;;;;;;;;;;4073523;35;20043;-96
2021/03/24 08:35:21;;;;;;;;;;;;;;;;;;4056262;35;20113;-95
2021/03/24 08:38:06;;;;;;;24.48;3.87;;;;;;;;;;4058959;35;20049;-94
2021/03/24 08:41:00;;;;;;;21.62;3.22;;;;;;;;;;4067382;35;20093;-95
2021/03/24 08:43:33;;;;;;;22.35;3.60;;;;;;;;;;4047940;35;20098;-96
2021/03/24 08:46:13;;;;;;;13.93;2.87;;;;;;;;;;4058309;35;20073;-93
2021/03/24 08:48:49;;;;;;;14.93;2.80;;;;;;;;;;4069378;35;20118;-95
2021/03/24 08:51:21;;;;;;;20.15;3.42;;;;;;;;;;4060983;35;20201;-95
2021/03/24 08:54:15;;;;;;;24.17;3.25;;;;;;;;;;4065463;35;20093;-96
2021/03/24 08:57:06;;;;;;;18.65;2.83;;;;;;;;;;4068291;35;20107;-95
2021/03/24 08:59:34;;;;;;;;;;;;;;;;;;4047899;35;20059;-94
2021/03/24 09:02:24;;;;;;;19.52;3.17;;;;;;;;;;4047280;35;19981;-95
2021/03/24 09:05:08;;;;;;;15.68;3.25;;;;;;;;;;4055970;35;20157;-96
2021/03/24 09:08:06;;;;;;;23.33;4.43;;;;;;;;;;4058929;35;20076;-95
2021/03/24 09:10:48;;;;;;;19.33;3.10;;;;;;;;;;4054189;35;20449;-95
2021/03/24 09:13:25;;;;;;;16.37;3.45;;;;;;;;;;4058594;35;20929;-96
2021/03/24 09:16:15;;;;;;;21.60;3.85;;;;;;;;;;4046854;35;20066;-94
2021/03/24 09:19:07;;;;;;;19.20;4.10;;;;;;;;;;4067687;35;20125;-96
2021/03/24 09:21:51;;;;;;;19.45;3.40;;;;;;;;;;4055620;35;20106;-94
2021/03/24 09:24:47;;;;;;;23.90;4.07;;;;;;;;;;4067785;35;20051;-95
2021/03/24 09:27:32;;;;;;;18.73;3.65;;;;;;;;;;4064660;35;20128;-95
2021/03/24 09:30:22;;;;;;;21.48;3.20;;;;;;;;;;4058825;35;20609;-96
2021/03/24 09:33:19;;;;;;;20.95;3.30;;;;;;;;;;4065405;35;20064;-94
2021/03/24 09:36:06;;;;;;;17.58;3.87;;;;;;;;;;4055662;35;20133;-95
2021/03/24 09:38:42;;;;;;;26.05;3.78;;;;;;;;;;4057054;35;20098;-95
2021/03/24 09:41:33;;;;;;;25.20;4.12;;;;;;;;;;4061295;35;20096;-96
2021/03/24 09:44:08;;;;;;;18.95;3.72;;;;;;;;;;4056518;35;20539;-96
2021/03/24 09:46:42;;;;;;;17.87;3.53;;;;;;;;;;4065126;35;20058;-94
2021/03/24 09:49:23;;;;;;;19.83;3.25;;;;;;;;;;4054800;35;20133;-94
2021/03/24 09:52:10;;;;;;;23.98;3.90;;;;;;;;;;4056310;35;20063;-95
2021/03/24 09:55:04;;;;;;;27.00;3.50;;;;;;;;;;4057897;35;20047;-94
2021/03/24 09:57:44;;;;;;;20.52;3.50;;;;;;;;;;4054645;35;20093;-95
2021/03/24 10:00:15;;;;;;;23.05;3.03;;;;;;;;;;4067397;35;20140;-95
2021/03/24 10:02:54;;;;;;;39.92;4.60;;;;;;;;;;4065704;35;20097;-96
2021/03/24 10:05:49;;;;;;;23.65;3.65;;;;;;;;;;4067232;35;20126;-96
2021/03/24 10:08:25;;;;;;;26.15;3.10;;;;;;;;;;4061831;35;20061;-95
2021/03/24 10:11:01;;;;;;;27.10;4.05;;;;;;;;;;4049857;35;20058;-94
2021/03/24 10:13:47;;;;;;;22.52;3.72;;;;;;;;;;4062563;35;20505;-96
2021/03/24 10:16:28;;;;;;;15.73;3.00;;;;;;;;;;4070253;35;20071;-94
2021/03/24 10:19:24;;;;;;;17.67;2.95;;;;;;;;;;4057116;35;20098;-96
2021/03/24 10:22:08;;;;;;;21.80;3.08;;;;;;;;;;4032407;35;20098;-96
2021/03/24 10:25:15;;;;;;;18.17;3.28;;;;;;;;;;4065203;35;20054;-96
2021/03/24 10:28:18;;;;;;;16.33;2.95;;;;;;;;;;4063085;35;20106;-95
2021/03/24 10:30:58;;;;;;;21.52;3.25;;;;;;;;;;4075209;35;20144;-95
2021/03/24 11:38:52;;;;;;;12.93;2.12;;;;;;;;;;5271471;26;20057;-86
2021/03/24 11:41:36;;;;;;;15.45;2.33;;;;;;;;;;5274615;27;20026;-85
2021/03/24 11:44:12;;;;;;;17.75;2.90;;;;;;;;;;5273624;27;20032;-85
2021/03/24 11:46:42;;;;;;;19.17;2.80;;;;;;;;;;5255821;27;20052;-85
2021/03/24 11:49:38;;;;;;;21.08;2.90;;;;;;;;;;5274062;27;20052;-85
2021/03/24 11:52:08;;;;;;;21.55;3.20;;;;;;;;;;5273055;27;20014;-84
2021/03/24 11:54:52;;;;;;;17.10;2.78;;;;;;;;;;5274252;27;20415;-84
2021/03/24 11:57:39;;;;;;;14.93;2.60;;;;;;;;;;5276029;27;20022;-84
2021/03/24 12:00:21;;;;;;;38.25;2.95;;;;;;;;;;5271319;27;20017;-85
2021/03/24 12:03:11;;;;;;;17.00;2.87;;;;;;;;;;5272546;27;20025;-84
2021/03/24 12:05:58;;;;;;;16.05;3.00;;;;;;;;;;5273277;27;20617;-85
2021/03/24 12:08:53;;;;;;;14.77;2.33;;;;;;;;;;5276158;27;20029;-85
2021/03/24 12:11:23;;;;;;;21.52;2.60;;;;;;;;;;5272374;27;20431;-85
2021/03/24 12:14:04;;;;;;;18.73;2.95;;;;;;;;;;5255581;27;20059;-85
2021/03/24 12:16:43;;;;;;;20.23;3.10;;;;;;;;;;5270573;27;20014;-85
2021/03/24 12:19:33;;;;;;;14.45;2.50;;;;;;;;;;5249102;27;20032;-85
2021/03/24 12:22:26;;;;;;;17.62;3.03;;;;;;;;;;5255791;27;20062;-85
2021/03/24 12:25:01;;;;;;;23.30;3.40;;;;;;;;;;5277047;27;20038;-85
2021/03/24 12:27:33;;;;;;;21.00;2.92;;;;;;;;;;5272683;27;20337;-85
2021/03/24 12:30:04;;;;;;;21.00;3.30;;;;;;;;;;5275561;27;20037;-85
2021/03/24 12:32:35;;;;;;;26.23;3.67;;;;;;;;;;5275456;27;20050;-85
2021/03/24 12:35:16;;;;;;;23.40;3.70;;;;;;;;;;5275583;27;20059;-86
2021/03/24 12:37:45;;;;;;;21.00;3.65;;;;;;;;;;5272721;27;20348;-85
2021/03/24 12:40:24;;;;;;;23.40;3.70;;;;;;;;;;5239811;27;20412;-85
2021/03/24 12:43:01;;;;;;;31.77;3.65;;;;;;;;;;5275248;27;20022;-85
2021/03/24 12:46:02;;;;;;;38.63;4.95;;;;;;;;;;5252748;27;20022;-86
2021/03/24 12:48:35;;;;;;;32.03;4.00;;;;;;;;;;5243715;27;20034;-84
2021/03/24 12:51:40;;;;;;;28.50;4.30;;;;;;;;;;5256801;27;20029;-84
2021/03/24 12:54:10;;;;;;;21.87;3.95;;;;;;;;;;5273817;27;20024;-85
2021/03/24 12:56:42;;;;;;;20.08;3.25;;;;;;;;;;5255870;27;20029;-85
2021/03/24 12:59:09;;;;;;;29.37;4.18;;;;;;;;;;5255890;27;20725;-85
2021/03/24 13:01:52;;;;;;;33.42;4.15;;;;;;;;;;5272410;27;20033;-85
2021/03/24 13:04:39;;;;;;;23.17;4.18;;;;;;;;;;5238608;27;20057;-84
2021/03/24 13:07:20;;;;;;;30.20;4.40;;;;;;;;;;5273663;27;20025;-84
2021/03/24 13:10:07;;;;;;;34.22;4.28;;;;;;;;;;5275676;27;20018;-84
2021/03/24 13:12:39;;;;;;;25.95;4.30;;;;;;;;;;5275796;27;20053;-85
2021/03/24 13:15:25;;;;;;;29.98;4.47;;;;;;;;;;5275433;27;20026;-85
2021/03/24 13:17:53;;;;;;;25.92;4.45;;;;;;;;;;5274055;27;20493;-83
2021/03/24 13:20:40;;;;;;;32.50;5.25;;;;;;;;;;5273658;27;20029;-85
2021/03/24 13:23:18;;;;;;;27.75;5.18;;;;;;;;;;5274590;27;20025;-84
2021/03/24 13:26:00;;;;;;;37.13;5.07;;;;;;;;;;5274362;27;20032;-84
2021/03/24 13:28:29;;;;;;;45.72;5.82;;;;;;;;;;5273111;27;20190;-84
2021/03/24 13:31:13;;;;;;;47.65;6.12;;;;;;;;;;5254466;27;20034;-85
2021/03/24 13:34:18;;;;;;;35.40;5.15;;;;;;;;;;5272538;27;20030;-85
2021/03/24 13:36:51;;;;;;;42.40;6.60;;;;;;;;;;5273756;27;20022;-84
2021/03/24 13:39:58;;;;;;;31.85;5.40;;;;;;;;;;5274733;27;20780;-84
2021/03/24 13:42:30;;;;;;;43.72;7.35;;;;;;;;;;5190123;27;20085;-84
2021/03/24 13:45:05;;;;;;;31.98;5.22;;;;;;;;;;5207235;27;20483;-85
2021/03/24 13:47:34;;;;;;;42.30;7.10;;;;;;;;;;5246280;27;20431;-85
2021/03/24 13:50:21;;;;;;;42.60;5.85;;;;;;;;;;5274710;27;20528;-84
2021/03/24 13:52:51;;;;;;;51.03;6.37;;;;;;;;;;5275431;27;20140;-84
2021/03/24 13:55:38;;;;;;;34.17;5.95;;;;;;;;;;5275733;27;20022;-85
2021/03/24 13:58:12;;;;;;;40.78;6.57;;;;;;;;;;5273154;27;20025;-85
2021/03/24 14:00:54;;;;;;;42.45;6.65;;;;;;;;;;5274717;27;20027;-84
2021/03/24 14:03:41;;;;;;;43.70;7.07;;;;;;;;;;5275486;27;20031;-85
2021/03/24 14:06:21;;;;;;;45.78;7.03;;;;;;;;;;5272617;27;20022;-85
2021/03/24 14:08:58;;;;;;;35.53;6.30;;;;;;;;;;5251636;27;20137;-83
2021/03/24 14:11:50;;;;;;;41.37;6.90;;;;;;;;;;5273878;27;20021;-84
2021/03/24 14:14:42;;;;;;;27.25;5.43;;;;;;;;;;5252695;27;20052;-84
2021/03/24 14:17:22;;;;;;;49.95;8.65;;;;;;;;;;5272656;27;20035;-84
2021/03/24 14:19:57;;;;;;;75.68;9.15;;;;;;;;;;5271724;27;20087;-84
2021/03/24 14:22:40;;;;;;;79.47;10.40;;;;;;;;;;5275059;27;20057;-84
2021/03/24 14:25:15;;;;;;;61.08;8.85;;;;;;;;;;5275094;27;20025;-84
2021/03/24 14:27:43;;;;;;;;;;;;;;;;;;5273451;27;20025;-84
2021/03/24 14:30:11;;;;;;;70.78;9.07;;;;;;;;;;5271898;27;20289;-84
2021/03/24 14:32:49;;;;;;;41.20;6.37;;;;;;;;;;5273463;27;20425;-85
2021/03/24 14:35:40;;;;;;;50.42;7.62;;;;;;;;;;5276707;27;20030;-85
2021/03/24 14:38:21;;;;;;;47.67;8.57;;;;;;;;;;5272566;27;20464;-85
2021/03/24 14:41:07;;;;;;;53.70;8.80;;;;;;;;;;5272584;27;20033;-84
2021/03/24 14:43:50;;;;;;;50.88;7.47;;;;;;;;;;5255899;27;20094;-83
2021/03/24 14:46:39;;;;;;;56.35;8.15;;;;;;;;;;5274088;27;20060;-85
2021/03/24 14:49:12;;;;;;;46.10;8.00;;;;;;;;;;5253668;27;20029;-85
2021/03/24 14:51:44;;;;;;;46.28;7.12;;;;;;;;;;5272797;27;20026;-84
2021/03/24 14:54:14;;;;;;;47.35;8.05;;;;;;;;;;5273798;27;20032;-84
2021/03/24 14:56:44;;;;;;;45.12;7.03;;;;;;;;;;5255533;27;20026;-85
2021/03/24 14:59:34;;;;;;;38.42;6.50;;;;;;;;;;5276802;27;20041;-84
2021/03/24 15:02:18;;;;;;;44.75;7.30;;;;;;;;;;5272720;27;20412;-84
2021/03/24 15:04:54;;;;;;;56.78;9.48;;;;;;;;;;5251147;27;20030;-84
2021/03/24 15:07:39;;;;;;;46.05;7.07;;;;;;;;;;5273399;27;20411;-85
2021/03/24 15:10:15;;;;;;;43.60;7.65;;;;;;;;;;5253931;27;20029;-83
2021/03/24 15:12:49;;;;;;;48.92;8.40;;;;;;;;;;5270110;27;20675;-84
2021/03/24 15:15:17;;;;;;;47.83;7.55;;;;;;;;;;5277397;27;20021;-84
2021/03/24 15:17:57;;;;;;;49.25;8.05;;;;;;;;;;5273898;27;20057;-85
2021/03/24 15:20:30;;;;;;;49.13;9.15;;;;;;;;;;5274804;27;20069;-85
2021/03/24 15:23:22;;;;;;;35.78;7.57;;;;;;;;;;5252740;27;20515;-84
2021/03/24 15:26:01;;;;;;;39.00;7.60;;;;;;;;;;5275130;27;20029;-84
2021/03/24 15:29:09;;;;;;;36.08;6.50;;;;;;;;;;5272262;27;20025;-84
2021/03/24 15:31:39;;;;;;;42.72;6.97;;;;;;;;;;5207689;27;20053;-86
2021/03/24 15:34:26;;;;;;;49.28;8.10;;;;;;;;;;5205342;27;20041;-84
2021/03/24 15:37:13;;;;;;;36.35;7.87;;;;;;;;;;5252567;27;20034;-86
2021/03/24 15:39:50;;;;;;;44.22;7.57;;;;;;;;;;5276902;27;20049;-85
2021/03/24 15:42:37;;;;;;;40.58;7.00;;;;;;;;;;5275799;27;20022;-85
2021/03/24 15:45:29;;;;;;;39.75;8.13;;;;;;;;;;5256003;27;20056;-84
2021/03/24 15:47:57;;;;;;;34.23;7.27;;;;;;;;;;5275942;27;20033;-83
2021/03/24 15:50:41;;;;;;;42.90;7.12;;;;;;;;;;5273431;27;20352;-84
2021/03/24 15:53:14;;;;;;;36.17;7.28;;;;;;;;;;5256046;27;20398;-83
2021/03/24 15:55:44;;;;;;;34.00;6.70;;;;;;;;;;5278548;27;20001;-83
2021/03/24 15:58:12;;;;;;;48.80;8.52;;;;;;;;;;5273179;27;20029;-84
2021/03/24 16:01:06;;;;;;;45.45;7.35;;;;;;;;;;5274265;27;20498;-83
2021/03/24 16:03:42;;;;;;;46.72;8.07;;;;;;;;;;5275727;27;20022;-84
2021/03/24 16:06:16;;;;;;;55.45;8.25;;;;;;;;;;5276113;27;20010;-84
2021/03/24 16:09:15;;;;;;;60.35;8.38;;;;;;;;;;5275743;27;20018;-83
2021/03/24 16:11:43;;;;;;;179.57;119.37;;;;;;;;;;5278351;27;20014;-83
2021/03/24 16:14:29;;;;;;;461.50;417.30;;;;;;;;;;5274950;27;20029;-83
2021/03/24 16:17:02;;;;;;;651.33;580.15;;;;;;;;;;5276612;27;20403;-84
2021/03/24 16:19:30;;;;;;;;;;;;;;;;;;5276752;27;20308;-84
2021/03/24 16:21:59;;;;;;;548.55;488.23;;;;;;;;;;5274530;27;20544;-84
2021/03/24 16:24:27;;;;;;;50.42;7.93;;;;;;;;;;5275174;27;20029;-83
2021/03/24 16:27:05;;;;;;;77.95;21.62;;;;;;;;;;5272436;27;20440;-84
2021/03/24 16:29:41;;;;;;;59.53;9.13;;;;;;;;;;5272789;27;20949;-84
2021/03/24 16:32:28;;;;;;;1369.72;543.40;;;;;;;;;;5271412;27;20763;-84
2021/03/24 16:35:03;;;;;;;60.88;38.10;;;;;;;;;;5274574;27;20028;-84
2021/03/24 16:37:49;;;;;;;202.27;182.37;;;;;;;;;;5275727;27;20022;-84
2021/03/24 16:40:20;;;;;;;457.58;413.12;;;;;;;;;;5272512;27;20079;-84
2021/03/24 16:42:54;;;;;;;334.52;301.20;;;;;;;;;;5274077;27;20033;-84
2021/03/24 16:45:33;;;;;;;470.48;426.92;;;;;;;;;;5274712;27;20031;-83